Time;durP1;ratioP1;P1;durP2;ratioP2;P2;SDS_P1;SDS_P2;PMS_P1;PMS_P2;Temp;Humidity;BMP_temperature;BMP_pressure;BME280_temperature;BME280_humidity;BME280_pressure;Samples;Min_cycle;Max_cycle;Signal;HPM_P1;HPM_P2
2022/07/22 02:02:40;;;;;;;;;;;;;;;25.14;73.69;98393.66;4854409;29;19968;-72
2022/07/22 02:05:08;;;;;;;;;;;;;;;25.16;76.81;98391.13;4838972;29;19950;-72
2022/07/22 02:07:35;;;;;;;;;;;;;;;24.95;79.43;98390.22;4846786;29;19953;-72
2022/07/22 02:10:04;;;;;;;;;;;;;;;24.91;76.12;98381.06;4847079;29;20362;-72
2022/07/22 02:12:34;;;;;;;;;;;;;;;24.99;73.89;98390.81;4843783;29;20330;-71
2022/07/22 02:15:04;;;;;;;;;;;;;;;25.10;72.84;98390.22;4842452;29;19953;-72
2022/07/22 02:17:32;;;;;;;;;;;;;;;25.21;72.43;98384.69;4836802;29;19957;-72
2022/07/22 02:20:00;;;;;;;;;;;;;;;25.15;72.94;98387.47;4861323;29;19964;-72
2022/07/22 02:22:27;;;;;;;;;;;;;;;25.20;72.52;98389.63;4836865;29;19976;-72
2022/07/22 02:24:55;;;;;;;;;;;;;;;25.21;71.03;98387.56;4856175;29;20317;-72
2022/07/22 02:27:22;;;;;;;;;;;;;;;25.30;69.50;98388.25;4846765;29;20271;-72
2022/07/22 02:29:50;;;;;;;;;;;;;;;25.37;69.50;98387.84;4844467;29;19958;-72
2022/07/22 02:32:18;;;;;;;;;;;;;;;25.40;69.52;98386.84;4835152;29;19958;-72
2022/07/22 02:34:45;;;;;;;;;;;;;;;25.40;69.17;98378.25;4846055;29;20008;-72
2022/07/22 02:37:12;;;;;;;;;;;;;;;25.36;68.54;98380.53;4847412;29;19964;-72
2022/07/22 02:39:40;;;;;;;;;;;;;;;25.40;68.44;98389.72;4845932;29;19952;-72
2022/07/22 02:42:07;;;;;;;;;;;;;;;25.34;70.34;98390.88;4845834;29;19961;-72
2022/07/22 02:44:35;;;;;;;;;;;;;;;25.12;73.33;98384.78;4846335;29;19954;-72
2022/07/22 02:47:03;;;;;;;;;;;;;;;25.02;74.92;98389.03;4843394;29;20340;-72
2022/07/22 02:49:33;;;;;;;;;;;;;;;24.96;71.46;98385.28;4837643;29;19949;-72
2022/07/22 02:52:01;;;;;;;;;;;;;;;24.97;71.77;98392.56;4860849;29;20296;-72
2022/07/22 02:54:29;;;;;;;;;;;;;;;24.97;72.39;98386.84;4845745;29;19956;-72
2022/07/22 02:56:56;;;;;;;;;;;;;;;24.95;72.78;98395.13;4860665;29;19954;-72
2022/07/22 02:59:25;;;;;;;;;;;;;;;24.90;72.05;98390.09;4847007;29;19959;-72
2022/07/22 03:01:52;;;;;;;;;;;;;;;24.99;71.89;98393.66;4845298;29;19976;-72
2022/07/22 03:04:20;;;;;;;;;;;;;;;24.99;71.89;98392.91;4845735;29;19972;-72
2022/07/22 03:06:48;;;;;;;;;;;;;;;25.00;73.31;98398.13;4860569;29;19953;-72
2022/07/22 03:09:19;;;;;;;;;;;;;;;24.95;73.54;98395.94;4860757;29;19960;-72
2022/07/22 03:11:46;;;;;;;;;;;;;;;24.90;74.93;98395.81;4845929;29;20336;-72
2022/07/22 03:14:16;;;;;;;;;;;;;;;24.83;75.27;98401.94;4844695;29;19953;-72
2022/07/22 03:16:43;;;;;;;;;;;;;;;24.75;75.44;98399.44;4845142;29;19950;-72
2022/07/22 03:19:11;;;;;;;;;;;;;;;24.76;76.38;98389.59;4860104;29;19958;-72
2022/07/22 03:21:38;;;;;;;;;;;;;;;24.67;76.81;98398.22;4845458;29;19976;-72
2022/07/22 03:24:07;;;;;;;;;;;;;;;24.54;78.44;98399.81;4845754;29;19958;-72
2022/07/22 03:26:34;;;;;;;;;;;;;;;24.32;81.49;98403.00;4844882;29;19949;-72
2022/07/22 03:29:01;;;;;;;;;;;;;;;24.34;80.30;98405.34;4845672;29;19950;-72
2022/07/22 03:31:29;;;;;;;;;;;;;;;24.29;81.43;98400.31;4845414;29;20330;-72
2022/07/22 03:33:57;;;;;;;;;;;;;;;24.24;81.20;98398.13;4860059;29;19957;-72
2022/07/22 03:36:28;;;;;;;;;;;;;;;24.23;81.59;98399.41;4845297;29;19950;-72
2022/07/22 03:38:56;;;;;;;;;;;;;;;24.18;81.84;98406.59;4846499;29;20250;-72
2022/07/22 03:41:23;;;;;;;;;;;;;;;24.15;81.44;98408.38;4844755;29;19964;-72
2022/07/22 03:43:51;;;;;;;;;;;;;;;24.04;83.36;98410.13;4845337;29;20340;-72
2022/07/22 03:46:19;;;;;;;;;;;;;;;24.07;82.82;98414.91;4845350;29;19949;-72
2022/07/22 03:48:46;;;;;;;;;;;;;;;24.05;83.49;98409.66;4845153;29;19954;-72
2022/07/22 03:51:14;;;;;;;;;;;;;;;24.01;84.01;98414.75;4860552;29;19953;-72
2022/07/22 03:53:42;;;;;;;;;;;;;;;24.00;83.91;98415.25;4845291;29;19954;-72
2022/07/22 03:56:09;;;;;;;;;;;;;;;24.06;80.82;98414.09;4845257;29;19947;-72
2022/07/22 03:58:36;;;;;;;;;;;;;;;24.13;81.11;98416.63;4845228;29;19954;-72
2022/07/22 04:01:04;;;;;;;;;;;;;;;24.27;80.57;98417.97;4859835;29;19966;-72
2022/07/22 04:03:32;;;;;;;;;;;;;;;24.33;79.07;98418.09;4844273;29;19974;-72
2022/07/22 04:05:59;;;;;;;;;;;;;;;24.29;79.56;98426.03;4846028;29;19960;-72
2022/07/22 04:08:48;;;;;;;;;;;;;;;24.28;79.65;98421.63;4859801;29;19959;-72
2022/07/22 04:11:16;;;;;;;;;;;;;;;24.27;81.11;98425.75;4844151;29;19950;-72
2022/07/22 04:13:44;;;;;;;;;;;;;;;24.31;81.45;98417.75;4845214;29;19950;-72
2022/07/22 04:16:11;;;;;;;;;;;;;;;24.32;81.18;98427.94;4844303;29;19954;-72
2022/07/22 04:18:47;;;;;;;;;;;;;;;24.36;80.98;98428.53;4859368;29;19959;-72
2022/07/22 04:21:17;;;;;;;;;;;;;;;24.38;80.82;98426.00;4859816;29;19968;-71
2022/07/22 04:23:50;;;;;;;;;;;;;;;24.38;79.97;98421.03;4844749;29;19952;-72
2022/07/22 04:26:25;;;;;;;;;;;;;;;24.53;79.32;98426.78;4840884;29;19952;-72
2022/07/22 04:28:53;;;;;;;;;;;;;;;24.72;78.30;98425.38;4836913;29;19948;-72
2022/07/22 04:31:21;;;;;;;;;;;;;;;24.82;77.80;98426.88;4858285;29;20340;-72
2022/07/22 04:33:54;;;;;;;;;;;;;;;24.90;77.08;98435.88;4834975;29;20251;-72
2022/07/22 04:36:22;;;;;;;;;;;;;;;24.98;76.36;98432.16;4843437;29;19958;-72
2022/07/22 04:38:51;;;;;;;;;;;;;;;25.05;76.34;98428.91;4859050;29;19949;-72
2022/07/22 04:41:19;;;;;;;;;;;;;;;25.11;77.93;98432.66;4855364;29;19999;-72
2022/07/22 04:43:46;;;;;;;;;;;;;;;25.24;74.46;98430.28;4859086;29;19955;-72
2022/07/22 04:46:14;;;;;;;;;;;;;;;25.57;73.75;98437.88;4841232;29;19952;-72
2022/07/22 04:48:43;;;;;;;;;;;;;;;25.89;72.83;98445.44;4856697;29;19954;-72
2022/07/22 04:51:10;;;;;;;;;;;;;;;26.19;72.67;98441.19;4841023;29;20357;-69
2022/07/22 04:53:39;;;;;;;;;;;;;;;26.51;71.45;98442.94;4843704;29;20377;-69
2022/07/22 04:56:06;;;;;;;;;;;;;;;26.91;67.52;98433.53;4841779;29;19949;-70
2022/07/22 04:58:34;;;;;;;;;;;;;;;27.34;62.35;98443.88;4849158;29;19982;-70
2022/07/22 05:01:01;;;;;;;;;;;;;;;27.81;60.67;98450.31;4842433;29;19973;-69
2022/07/22 05:03:28;;;;;;;;;;;;;;;28.34;58.67;98449.66;4840494;29;20409;-70
2022/07/22 05:05:56;;;;;;;;;;;;;;;28.98;57.91;98452.56;4857385;29;20253;-70
2022/07/22 05:08:33;;;;;;;;;;;;;;;29.31;55.69;98453.97;4853889;29;19950;-70
2022/07/22 05:11:00;;;;;;;;;;;;;;;29.55;49.26;98448.50;4852441;29;19965;-70
2022/07/22 05:13:27;;;;;;;;;;;;;;;29.70;47.11;98461.34;4828299;29;19948;-70
2022/07/22 05:15:54;;;;;;;;;;;;;;;30.02;47.20;98456.09;4844654;29;19948;-70
2022/07/22 05:18:22;;;;;;;;;;;;;;;30.67;46.25;98461.47;4861190;29;19955;-70
2022/07/22 05:20:49;;;;;;;;;;;;;;;31.03;44.12;98454.53;4843535;29;19950;-70
2022/07/22 05:23:16;;;;;;;;;;;;;;;31.44;42.65;98452.44;4846466;29;19953;-70
2022/07/22 05:25:44;;;;;;;;;;;;;;;31.97;43.87;98464.63;4855510;29;19955;-70
2022/07/22 05:28:11;;;;;;;;;;;;;;;31.84;43.75;98456.56;4844019;29;20252;-70
2022/07/22 05:30:42;;;;;;;;;;;;;;;31.90;39.65;98457.31;4851135;29;19960;-70
2022/07/22 05:33:09;;;;;;;;;;;;;;;31.93;39.07;98462.03;4857790;29;19955;-70
2022/07/22 05:35:55;;;;;;;;;;;;;;;31.55;39.69;98458.13;4844392;29;19952;-70
2022/07/22 05:38:24;;;;;;;;;;;;;;;31.25;40.03;98454.38;4845072;29;19952;-70
2022/07/22 05:40:51;;;;;;;;;;;;;;;30.75;41.25;98456.72;4847076;29;19958;-70
2022/07/22 05:43:18;;;;;;;;;;;;;;;30.30;42.27;98447.38;4833840;29;20263;-70
2022/07/22 05:45:46;;;;;;;;;;;;;;;30.27;45.47;98455.03;5304358;24;20087;-70
2022/07/22 05:48:13;;;;;;;;;;;;;;;30.13;45.14;98447.44;4829429;29;19950;-70
2022/07/22 05:50:40;;;;;;;;;;;;;;;30.12;47.71;98454.53;4829772;29;19949;-70
2022/07/22 05:53:08;;;;;;;;;;;;;;;30.05;45.16;98457.16;4829691;29;20376;-70
2022/07/22 05:55:35;;;;;;;;;;;;;;;30.09;45.51;98464.22;4829001;29;20244;-70
2022/07/22 05:58:02;;;;;;;;;;;;;;;30.04;45.25;98459.25;4830239;29;19958;-70
2022/07/22 06:00:30;;;;;;;;;;;;;;;30.08;46.72;98465.53;4829597;29;19953;-70
2022/07/22 06:03:00;;;;;;;;;;;;;;;30.09;45.29;98458.47;4822974;29;19965;-70
2022/07/22 06:05:28;;;;;;;;;;;;;;;30.05;44.96;98463.72;4829324;29;19951;-69
2022/07/22 06:08:05;;;;;;;;;;;;;;;29.89;45.15;98465.28;4829959;29;19954;-70
2022/07/22 06:10:41;;;;;;;;;;;;;;;29.88;46.48;98465.84;4844703;29;19950;-69
2022/07/22 06:13:08;;;;;;;;;;;;;;;30.03;46.93;98468.44;4829337;29;19950;-70
2022/07/22 06:15:37;;;;;;;;;;;;;;;30.06;47.28;98458.72;4829573;29;19950;-70
2022/07/22 06:18:04;;;;;;;;;;;;;;;29.93;49.19;98467.94;4829260;29;19947;-70
2022/07/22 06:20:32;;;;;;;;;;;;;;;29.86;49.47;98466.34;4829225;29;20336;-70
2022/07/22 06:22:59;;;;;;;;;;;;;;;29.92;49.82;98464.25;4830344;29;19980;-70
2022/07/22 06:25:27;;;;;;;;;;;;;;;29.90;50.17;98469.75;4829093;29;19951;-70
2022/07/22 06:28:09;;;;;;;;;;;;;;;29.85;51.40;98473.44;4829394;29;19949;-70
2022/07/22 06:30:38;;;;;;;;;;;;;;;29.81;52.15;98474.97;4828988;29;19951;-70
2022/07/22 06:33:06;;;;;;;;;;;;;;;29.85;52.13;98475.53;4829054;29;19949;-70
2022/07/22 06:35:34;;;;;;;;;;;;;;;29.92;52.01;98480.75;4826767;29;19952;-70
2022/07/22 06:38:02;;;;;;;;;;;;;;;29.80;52.80;98491.50;4817855;29;19957;-70
2022/07/22 06:40:39;;;;;;;;;;;;;;;29.72;51.85;98481.00;4822045;29;19952;-70
2022/07/22 06:43:28;;;;;;;;;;;;;;;29.70;53.44;98487.28;4828446;29;19997;-70
2022/07/22 06:46:21;;;;;;;;;;;;;;;29.73;55.14;98482.56;4827794;29;19972;-70
2022/07/22 06:48:52;;;;;;;;;;;;;;;29.79;54.18;98489.13;4828234;29;19950;-70
2022/07/22 06:51:19;;;;;;;;;;;;;;;29.87;54.18;98484.44;4828606;29;19949;-70
2022/07/22 06:53:48;;;;;;;;;;;;;;;29.97;54.24;98490.72;4828806;29;19981;-70
2022/07/22 06:56:16;;;;;;;;;;;;;;;29.97;54.66;98488.63;4828798;29;19977;-70
2022/07/22 06:58:43;;;;;;;;;;;;;;;30.01;54.14;98494.91;4827909;29;19954;-70
2022/07/22 07:01:12;;;;;;;;;;;;;;;30.03;53.84;98500.94;4843732;29;19979;-70
2022/07/22 07:03:49;;;;;;;;;;;;;;;30.14;53.25;98503.81;4827708;29;19968;-70
2022/07/22 07:06:17;;;;;;;;;;;;;;;30.27;51.82;98498.31;4829291;29;19957;-70
2022/07/22 07:09:13;;;;;;;;;;;;;;;30.26;52.73;98499.59;4822565;29;19961;-70
2022/07/22 07:11:44;;;;;;;;;;;;;;;30.36;51.08;98497.25;4843141;29;19957;-70
2022/07/22 07:14:17;;;;;;;;;;;;;;;30.41;51.39;98503.03;4842734;29;19949;-70
2022/07/22 07:16:44;;;;;;;;;;;;;;;30.32;49.93;98500.38;4827709;29;19952;-70
2022/07/22 07:19:12;;;;;;;;;;;;;;;30.39;50.38;98502.75;4827100;29;19955;-70
2022/07/22 07:21:39;;;;;;;;;;;;;;;30.44;50.17;98504.06;4822617;29;19955;-70
2022/07/22 07:24:07;;;;;;;;;;;;;;;30.51;49.25;98512.19;4836545;29;19956;-70
2022/07/22 07:26:34;;;;;;;;;;;;;;;30.63;47.40;98507.16;4828978;29;19949;-70
2022/07/22 07:29:01;;;;;;;;;;;;;;;30.62;47.96;98512.13;4827337;29;19955;-69
2022/07/22 07:31:34;;;;;;;;;;;;;;;30.64;46.97;98509.50;4838790;29;19956;-70
2022/07/22 07:34:08;;;;;;;;;;;;;;;30.83;47.31;98516.28;4822247;29;19954;-70
2022/07/22 07:36:36;;;;;;;;;;;;;;;30.82;47.69;98511.00;4825389;29;19947;-70
2022/07/22 07:39:04;;;;;;;;;;;;;;;30.85;49.05;98524.41;4822117;29;20348;-70
2022/07/22 07:41:32;;;;;;;;;;;;;;;30.96;48.19;98519.38;4820838;29;20235;-69
2022/07/22 07:44:00;;;;;;;;;;;;;;;31.06;48.54;98516.97;4832753;29;19971;-70
2022/07/22 07:46:27;;;;;;;;;;;;;;;30.93;50.98;98516.78;4826093;29;19967;-70
2022/07/22 07:48:56;;;;;;;;;;;;;;;30.95;52.10;98520.72;4824293;29;19953;-70
2022/07/22 07:51:23;;;;;;;;;;;;;;;31.03;49.57;98513.06;4823420;29;20346;-70
2022/07/22 07:53:52;;;;;;;;;;;;;;;31.17;51.14;98511.97;4823091;29;19951;-70
2022/07/22 07:56:19;;;;;;;;;;;;;;;31.29;50.69;98517.66;4826159;29;19952;-70
2022/07/22 07:58:47;;;;;;;;;;;;;;;31.31;50.49;98515.03;4827019;29;19952;-70
2022/07/22 08:01:27;;;;;;;;;;;;;;;31.35;51.11;98516.31;4826519;29;19960;-70
2022/07/22 08:04:07;;;;;;;;;;;;;;;31.45;51.22;98517.59;4826746;29;19971;-70
2022/07/22 08:06:49;;;;;;;;;;;;;;;31.51;51.58;98524.13;4826811;29;19957;-70
2022/07/22 08:09:17;;;;;;;;;;;;;;;31.64;51.11;98515.63;4827339;29;19949;-70
2022/07/22 08:11:44;;;;;;;;;;;;;;;31.75;52.11;98527.13;4826074;29;19951;-70
2022/07/22 08:14:39;;;;;;;;;;;;;;;31.70;53.46;98525.06;4842016;29;19949;-70
2022/07/22 08:17:24;;;;;;;;;;;;;;;31.70;52.64;98527.16;4827119;29;19953;-70
2022/07/22 08:19:52;;;;;;;;;;;;;;;31.68;54.10;98529.81;4827968;29;19955;-70
2022/07/22 08:22:19;;;;;;;;;;;;;;;31.59;53.55;98525.13;4824669;29;19952;-70
2022/07/22 08:24:48;;;;;;;;;;;;;;;31.73;53.22;98526.09;4826087;29;19954;-70
2022/07/22 08:27:17;;;;;;;;;;;;;;;31.68;57.96;98524.00;4826685;29;19960;-70
2022/07/22 08:29:44;;;;;;;;;;;;;;;31.70;57.50;98518.47;4826499;29;19975;-70
2022/07/22 08:32:12;;;;;;;;;;;;;;;31.74;57.53;98521.88;4826423;29;19949;-70
2022/07/22 08:34:40;;;;;;;;;;;;;;;31.74;55.07;98533.44;4826902;29;19961;-70
2022/07/22 08:37:08;;;;;;;;;;;;;;;31.64;60.42;98521.41;4826411;29;19956;-70
2022/07/22 08:39:35;;;;;;;;;;;;;;;31.73;59.74;98523.19;4826659;29;19952;-70
2022/07/22 08:42:03;;;;;;;;;;;;;;;31.58;59.04;98526.44;4825861;29;19954;-70
2022/07/22 08:44:31;;;;;;;;;;;;;;;31.63;59.55;98525.63;4826370;29;19971;-70
2022/07/22 08:46:59;;;;;;;;;;;;;;;31.56;62.06;98519.63;4826563;29;19979;-70
2022/07/22 08:50:03;;;;;;;;;;;;;;;31.75;61.18;98526.31;4826758;29;19955;-70
2022/07/22 08:52:49;;;;;;;;;;;;;;;31.89;60.88;98519.38;4828279;29;19949;-70
2022/07/22 08:55:17;;;;;;;;;;;;;;;31.84;57.58;98523.09;4826790;29;19957;-70
2022/07/22 08:57:50;;;;;;;;;;;;;;;31.86;60.42;98519.69;4826661;29;19957;-70
2022/07/22 09:00:19;;;;;;;;;;;;;;;32.07;62.45;98512.94;4828179;29;19952;-70
2022/07/22 09:02:47;;;;;;;;;;;;;;;32.07;60.86;98515.06;4827186;29;19980;-70
2022/07/22 09:05:16;;;;;;;;;;;;;;;32.08;59.57;98517.44;4826720;29;19955;-70
2022/07/22 09:08:04;;;;;;;;;;;;;;;32.26;60.45;98516.72;4834761;29;19958;-70
2022/07/22 09:10:43;;;;;;;;;;;;;;;32.28;56.70;98525.63;4834903;29;19949;-70
2022/07/22 09:13:32;;;;;;;;;;;;;;;32.28;63.38;98521.97;4835070;29;19969;-70
2022/07/22 09:16:42;;;;;;;;;;;;;;;32.48;58.74;98522.28;4834003;29;19963;-70
2022/07/22 09:19:33;;;;;;;;;;;;;;;32.35;57.92;98527.19;4829656;29;20346;-70
2022/07/22 09:22:31;;;;;;;;;;;;;;;32.39;59.35;98521.88;4834525;29;19968;-70
2022/07/22 09:25:19;;;;;;;;;;;;;;;32.46;56.72;98518.38;4831589;29;19981;-70
2022/07/22 09:28:05;;;;;;;;;;;;;;;32.45;61.85;98511.78;4836898;29;19957;-70
2022/07/22 09:30:53;;;;;;;;;;;;;;;32.63;56.07;98515.31;4836801;29;19974;-70
2022/07/22 09:33:22;;;;;;;;;;;;;;;32.65;57.72;98515.53;4832265;29;19958;-70
2022/07/22 09:36:01;;;;;;;;;;;;;;;32.62;61.55;98514.56;4831720;29;19955;-70
2022/07/22 09:38:29;;;;;;;;;;;;;;;32.41;60.26;98507.63;4824697;29;20241;-70
2022/07/22 09:40:58;;;;;;;;;;;;;;;32.51;57.76;98500.19;4826128;29;19956;-70
2022/07/22 09:43:32;;;;;;;;;;;;;;;32.19;60.30;98502.84;4822442;29;19976;-70
2022/07/22 09:45:59;;;;;;;;;;;;;;;32.49;59.51;98505.72;4823865;29;19977;-70
2022/07/22 09:48:50;;;;;;;;;;;;;;;32.56;56.72;98499.34;4791170;29;19960;-70
2022/07/22 09:51:33;;;;;;;;;;;;;;;32.66;55.13;98502.66;4810887;29;20254;-70
2022/07/22 09:54:15;;;;;;;;;;;;;;;32.65;58.88;98498.16;4819247;29;19992;-70
2022/07/22 09:56:44;;;;;;;;;;;;;;;32.59;58.29;98494.56;4824740;29;19956;-70
2022/07/22 09:59:13;;;;;;;;;;;;;;;32.60;59.00;98499.06;4808956;29;19953;-70
2022/07/22 10:01:46;;;;;;;;;;;;;;;32.59;64.62;98492.47;4822731;29;19964;-70
2022/07/22 10:04:15;;;;;;;;;;;;;;;32.51;56.04;98493.59;4822836;29;19976;-70
2022/07/22 10:06:42;;;;;;;;;;;;;;;32.61;59.02;98494.81;4810687;29;20250;-70
2022/07/22 10:09:16;;;;;;;;;;;;;;;32.69;60.94;98492.88;4825435;29;19956;-70
2022/07/22 10:11:46;;;;;;;;;;;;;;;32.80;60.15;98489.84;4810724;29;19947;-70
2022/07/22 10:14:17;;;;;;;;;;;;;;;32.85;58.16;98489.78;4809734;29;19952;-70
2022/07/22 10:16:48;;;;;;;;;;;;;;;32.83;52.13;98494.53;4823063;29;19961;-70
2022/07/22 10:19:15;;;;;;;;;;;;;;;32.81;57.28;98486.41;4826706;29;20296;-70
2022/07/22 10:21:43;;;;;;;;;;;;;;;32.86;52.33;98488.47;4810934;29;19951;-70
2022/07/22 10:24:14;;;;;;;;;;;;;;;32.80;57.48;98487.72;4827456;29;19969;-70
2022/07/22 10:26:53;;;;;;;;;;;;;;;32.94;49.39;98480.69;4804011;29;19951;-70
2022/07/22 10:29:40;;;;;;;;;;;;;;;32.89;52.73;98478.66;4829656;29;19946;-70
2022/07/22 10:32:16;;;;;;;;;;;;;;;32.82;56.73;98481.38;4829704;29;19951;-70
2022/07/22 10:34:59;;;;;;;;;;;;;;;32.85;53.87;98469.50;4820924;29;19955;-70
2022/07/22 10:37:36;;;;;;;;;;;;;;;32.99;55.60;98473.25;4829119;29;19949;-70
2022/07/22 10:40:21;;;;;;;;;;;;;;;32.67;53.58;98467.34;4829397;29;19957;-70
2022/07/22 10:43:00;;;;;;;;;;;;;;;32.90;54.45;98457.06;4824488;29;19958;-70
2022/07/22 10:45:29;;;;;;;;;;;;;;;33.08;54.92;98461.34;4828855;29;19972;-70
2022/07/22 10:47:58;;;;;;;;;;;;;;;33.13;57.81;98463.38;4828401;29;19955;-70
2022/07/22 10:50:37;;;;;;;;;;;;;;;33.14;53.91;98458.34;4825364;29;20351;-70
2022/07/22 10:53:05;;;;;;;;;;;;;;;33.10;53.19;98449.97;4828183;29;19948;-71
2022/07/22 10:55:33;;;;;;;;;;;;;;;33.28;54.80;98457.91;4828356;29;20373;-70
2022/07/22 10:58:21;;;;;;;;;;;;;;;33.46;54.87;98450.50;4828508;29;19960;-70
2022/07/22 11:00:48;;;;;;;;;;;;;;;33.45;54.70;98452.63;4805837;29;19947;-70
2022/07/22 11:03:25;;;;;;;;;;;;;;;33.53;50.65;98455.66;4819866;29;19959;-70
2022/07/22 11:05:52;;;;;;;;;;;;;;;33.63;53.81;98456.84;4829022;29;19952;-70
2022/07/22 11:08:20;;;;;;;;;;;;;;;33.67;54.66;98455.19;4824013;29;19959;-70
2022/07/22 11:10:50;;;;;;;;;;;;;;;33.66;57.11;98455.75;4820439;29;19967;-70
2022/07/22 11:13:30;;;;;;;;;;;;;;;33.56;58.16;98449.56;4818621;29;19945;-70
2022/07/22 11:16:16;;;;;;;;;;;;;;;33.45;56.84;98446.03;4811994;29;19953;-70
2022/07/22 11:18:51;;;;;;;;;;;;;;;33.47;55.00;98440.47;4820207;29;19954;-70
2022/07/22 11:21:19;;;;;;;;;;;;;;;33.53;54.36;98441.16;4826578;29;19954;-70
2022/07/22 11:23:48;;;;;;;;;;;;;;;33.47;57.07;98440.47;4823897;29;19967;-70
2022/07/22 11:26:16;;;;;;;;;;;;;;;33.42;51.64;98436.31;4829078;29;19953;-70
2022/07/22 11:28:44;;;;;;;;;;;;;;;33.44;55.08;98432.84;4823353;29;19955;-70
2022/07/22 11:31:16;;;;;;;;;;;;;;;33.20;52.94;98436.66;4828173;29;19957;-70
2022/07/22 11:33:44;;;;;;;;;;;;;;;33.26;53.04;98431.53;4825407;29;19960;-70
2022/07/22 11:36:12;;;;;;;;;;;;;;;33.21;51.86;98426.63;4826016;29;20232;-70
2022/07/22 11:38:43;;;;;;;;;;;;;;;33.14;50.89;98420.66;4828038;29;19958;-70
2022/07/22 11:41:12;;;;;;;;;;;;;;;33.25;51.19;98418.41;4821747;29;20039;-70
2022/07/22 11:43:44;;;;;;;;;;;;;;;33.23;50.35;98417.38;4821732;29;20344;-70
2022/07/22 11:46:12;;;;;;;;;;;;;;;33.13;50.64;98410.41;4819649;29;20364;-70
2022/07/22 11:48:41;;;;;;;;;;;;;;;33.30;55.97;98410.94;4827922;29;20345;-70
2022/07/22 11:51:10;;;;;;;;;;;;;;;33.36;56.46;98405.84;4827064;29;19954;-70
2022/07/22 11:53:38;;;;;;;;;;;;;;;33.48;57.96;98404.31;4828140;29;20245;-70
2022/07/22 11:56:06;;;;;;;;;;;;;;;33.25;57.13;98409.72;4828420;29;19953;-70
2022/07/22 11:58:43;;;;;;;;;;;;;;;33.36;56.57;98391.34;4822019;29;19957;-70
2022/07/22 12:01:15;;;;;;;;;;;;;;;33.30;55.19;98403.03;4837427;29;19952;-69
2022/07/22 12:03:48;;;;;;;;;;;;;;;33.39;57.43;98393.94;4829584;29;19950;-69
2022/07/22 12:06:16;;;;;;;;;;;;;;;33.41;54.62;98387.56;4824130;29;19961;-70
2022/07/22 12:08:45;;;;;;;;;;;;;;;33.41;54.26;98393.38;4822622;29;19953;-69
2022/07/22 12:11:14;;;;;;;;;;;;;;;33.43;55.15;98385.69;4821050;29;19951;-69
2022/07/22 12:13:43;;;;;;;;;;;;;;;33.66;55.25;98394.84;4821127;29;19946;-69
2022/07/22 12:16:21;;;;;;;;;;;;;;;33.63;54.62;98378.53;4827808;29;19959;-69
2022/07/22 12:18:54;;;;;;;;;;;;;;;33.63;55.57;98385.13;4828140;29;19952;-69
2022/07/22 12:21:22;;;;;;;;;;;;;;;33.73;61.67;98377.56;4827478;29;19956;-69
2022/07/22 12:23:51;;;;;;;;;;;;;;;33.67;57.74;98371.06;4828489;29;19982;-69
2022/07/22 12:26:19;;;;;;;;;;;;;;;33.64;56.43;98380.09;4827642;29;20223;-69
2022/07/22 12:28:46;;;;;;;;;;;;;;;33.64;59.49;98374.31;4827730;29;19959;-69
2022/07/22 12:31:13;;;;;;;;;;;;;;;33.72;57.34;98364.38;4828191;29;19957;-69
2022/07/22 12:33:46;;;;;;;;;;;;;;;33.63;53.66;98366.94;4827538;29;19947;-70
2022/07/22 12:36:14;;;;;;;;;;;;;;;33.64;58.99;98360.59;4827496;29;19951;-69
2022/07/22 12:38:41;;;;;;;;;;;;;;;33.52;58.31;98367.09;4827904;29;19955;-69
2022/07/22 12:41:25;;;;;;;;;;;;;;;33.60;60.44;98363.00;4827975;29;19959;-69
2022/07/22 12:43:52;;;;;;;;;;;;;;;33.61;55.98;98361.69;4827434;29;19975;-68
2022/07/22 12:46:20;;;;;;;;;;;;;;;33.44;55.90;98366.19;4826627;29;19978;-68
2022/07/22 12:48:51;;;;;;;;;;;;;;;33.46;60.37;98354.81;4826992;29;19960;-68
2022/07/22 12:51:19;;;;;;;;;;;;;;;33.48;58.58;98355.81;4827827;29;19947;-68
2022/07/22 12:53:46;;;;;;;;;;;;;;;33.59;61.55;98349.06;4826718;29;19969;-68
2022/07/22 12:56:13;;;;;;;;;;;;;;;33.64;56.53;98351.88;4827160;29;20256;-68
2022/07/22 12:58:41;;;;;;;;;;;;;;;33.56;53.37;98362.56;4827287;29;19947;-68
2022/07/22 13:01:08;;;;;;;;;;;;;;;33.75;54.09;98353.03;4826788;29;20025;-68
2022/07/22 13:03:36;;;;;;;;;;;;;;;33.84;52.60;98352.59;4826871;29;19960;-68
2022/07/22 13:06:04;;;;;;;;;;;;;;;33.98;56.32;98351.25;4827689;29;19971;-68
2022/07/22 13:08:31;;;;;;;;;;;;;;;34.01;59.50;98350.94;4827264;29;19951;-68
2022/07/22 13:11:07;;;;;;;;;;;;;;;34.02;53.65;98345.91;4827607;29;19958;-68
2022/07/22 13:13:34;;;;;;;;;;;;;;;33.98;53.00;98352.03;4827131;29;19958;-68
2022/07/22 13:16:02;;;;;;;;;;;;;;;33.88;54.72;98342.22;4827503;29;19951;-68
2022/07/22 13:18:29;;;;;;;;;;;;;;;33.86;57.03;98335.41;4827074;29;19955;-68
2022/07/22 13:20:56;;;;;;;;;;;;;;;33.89;56.56;98331.41;4810707;29;20283;-68
2022/07/22 13:23:25;;;;;;;;;;;;;;;33.78;58.28;98325.78;4827767;29;19958;-68
2022/07/22 13:25:52;;;;;;;;;;;;;;;33.90;62.26;98330.81;4804384;29;19967;-68
2022/07/22 13:28:22;;;;;;;;;;;;;;;33.91;58.51;98329.50;4827401;29;19959;-68
2022/07/22 13:30:49;;;;;;;;;;;;;;;33.95;57.90;98326.25;4827468;29;19952;-68
2022/07/22 13:33:17;;;;;;;;;;;;;;;33.84;57.11;98324.38;4815906;29;20274;-68
2022/07/22 13:35:44;;;;;;;;;;;;;;;33.79;56.94;98330.25;4826266;29;19979;-68
2022/07/22 13:38:11;;;;;;;;;;;;;;;33.67;56.81;98326.78;4824300;29;19960;-68
2022/07/22 13:40:41;;;;;;;;;;;;;;;33.48;58.60;98326.03;4820920;29;20228;-68
2022/07/22 13:43:09;;;;;;;;;;;;;;;33.23;60.14;98318.84;4824449;29;19960;-68
2022/07/22 13:45:41;;;;;;;;;;;;;;;33.12;61.36;98316.09;4807968;29;19983;-68
2022/07/22 13:48:08;;;;;;;;;;;;;;;33.00;64.57;98309.69;4825041;29;19953;-68
2022/07/22 13:50:35;;;;;;;;;;;;;;;32.87;61.79;98313.31;4822870;29;19955;-68
2022/07/22 13:53:03;;;;;;;;;;;;;;;32.78;63.13;98324.50;4821999;29;20261;-68
2022/07/22 13:55:30;;;;;;;;;;;;;;;32.75;64.26;98331.38;4825781;29;19959;-68
2022/07/22 13:57:57;;;;;;;;;;;;;;;32.68;66.25;98332.81;4826020;29;20303;-68
2022/07/22 14:00:25;;;;;;;;;;;;;;;32.63;67.99;98309.72;4829749;29;20371;-68
2022/07/22 14:02:52;;;;;;;;;;;;;;;32.55;68.75;98303.75;4829920;29;19962;-68
2022/07/22 14:05:19;;;;;;;;;;;;;;;32.50;67.08;98310.38;4829703;29;19967;-68
2022/07/22 14:07:46;;;;;;;;;;;;;;;32.44;69.46;98316.28;4829652;29;19958;-68
2022/07/22 14:10:14;;;;;;;;;;;;;;;32.35;72.79;98312.97;4829519;29;19959;-68
2022/07/22 14:12:42;;;;;;;;;;;;;;;32.30;67.95;98319.63;4827919;29;19953;-68
2022/07/22 14:15:09;;;;;;;;;;;;;;;32.19;68.89;98313.97;4827330;29;19952;-69
2022/07/22 14:17:37;;;;;;;;;;;;;;;32.17;70.27;98325.31;4830140;29;19957;-68
2022/07/22 14:20:06;;;;;;;;;;;;;;;32.14;70.02;98320.59;4829244;29;19979;-68
2022/07/22 14:22:34;;;;;;;;;;;;;;;32.12;69.76;98326.16;4829657;29;19961;-68
2022/07/22 14:25:02;;;;;;;;;;;;;;;32.10;71.47;98309.34;4830323;29;19967;-68
2022/07/22 14:27:29;;;;;;;;;;;;;;;32.07;72.88;98321.22;4829615;29;20418;-68
2022/07/22 14:29:57;;;;;;;;;;;;;;;32.05;72.09;98321.75;4825288;29;19956;-68
2022/07/22 14:32:24;;;;;;;;;;;;;;;32.04;72.27;98322.28;4829588;29;19965;-68
2022/07/22 14:34:51;;;;;;;;;;;;;;;32.05;72.64;98332.56;4829311;29;19955;-68
2022/07/22 14:37:18;;;;;;;;;;;;;;;32.03;72.99;98332.31;4830000;29;20312;-68
2022/07/22 14:39:48;;;;;;;;;;;;;;;31.98;75.47;98331.06;4829809;29;19954;-69
2022/07/22 14:42:15;;;;;;;;;;;;;;;31.96;77.60;98327.88;4814075;29;19948;-69
2022/07/22 14:44:42;;;;;;;;;;;;;;;31.97;75.84;98326.56;4829144;29;19964;-69
2022/07/22 14:47:10;;;;;;;;;;;;;;;31.97;76.35;98320.78;4826719;29;19979;-69
2022/07/22 14:49:37;;;;;;;;;;;;;;;31.99;77.53;98318.13;4824412;29;20338;-68
2022/07/22 14:52:06;;;;;;;;;;;;;;;32.04;75.99;98317.28;4824665;29;20379;-68
2022/07/22 14:54:33;;;;;;;;;;;;;;;32.07;86.84;98315.44;4828403;29;20272;-68
2022/07/22 14:57:01;;;;;;;;;;;;;;;32.05;84.90;98310.19;4818835;29;20318;-68
2022/07/22 14:59:28;;;;;;;;;;;;;;;32.03;80.72;98312.06;4825817;29;19952;-68
2022/07/22 15:01:56;;;;;;;;;;;;;;;32.06;75.73;98319.66;4823873;29;19951;-68
2022/07/22 15:04:23;;;;;;;;;;;;;;;32.09;74.74;98315.66;4828940;29;19949;-68
2022/07/22 15:06:51;;;;;;;;;;;;;;;32.13;80.62;98308.22;4832197;29;19996;-68